Time;durP1;ratioP1;P1;durP2;ratioP2;P2;SDS_P1;SDS_P2;PMS_P1;PMS_P2;Temp;Humidity;BMP_temperature;BMP_pressure;BME280_temperature;BME280_humidity;BME280_pressure;Samples;Min_cycle;Max_cycle;Signal;HPM_P1;HPM_P2
2022/07/21 00:01:49;;;;;;;23.52;15.93;;;;;;;20.60;86.44;101361.59;4954237;29;20665;-48
2022/07/21 00:04:15;;;;;;;19.88;15.52;;;;;;;20.67;86.09;101360.16;4953722;28;20174;-47
2022/07/21 00:06:41;;;;;;;24.65;18.35;;;;;;;20.33;87.40;101357.13;4968837;28;20215;-45
2022/07/21 00:09:07;;;;;;;28.67;17.88;;;;;;;20.09;87.96;101359.69;4953937;29;20198;-47
2022/07/21 00:11:33;;;;;;;26.50;17.73;;;;;;;20.05;89.11;101349.13;4954394;29;20626;-46
2022/07/21 00:13:58;;;;;;;23.98;17.58;;;;;;;20.05;89.08;101347.31;4953811;29;20183;-47
2022/07/21 00:16:24;;;;;;;24.85;17.52;;;;;;;20.27;88.67;101326.72;4954560;29;20179;-46
2022/07/21 00:18:49;;;;;;;25.00;16.83;;;;;;;20.19;87.95;101323.69;4953796;29;20171;-48
2022/07/21 00:21:15;;;;;;;24.83;16.83;;;;;;;20.17;88.38;101330.09;4953964;29;20173;-46
2022/07/21 00:23:40;;;;;;;20.17;16.23;;;;;;;20.21;87.67;101332.63;4953526;29;20198;-48
2022/07/21 00:26:06;;;;;;;24.73;16.95;;;;;;;20.10;88.19;101333.38;4953569;29;20257;-46
2022/07/21 00:28:31;;;;;;;23.58;17.10;;;;;;;20.12;88.09;101334.16;4953953;29;20302;-45
2022/07/21 00:30:57;;;;;;;24.10;16.77;;;;;;;20.05;88.03;101328.28;4936366;29;20217;-44
2022/07/21 00:33:22;;;;;;;24.98;17.08;;;;;;;19.88;89.02;101326.72;4953051;29;20167;-46
2022/07/21 00:35:48;;;;;;;20.80;15.63;;;;;;;19.78;88.69;101331.03;4936556;29;20186;-43
2022/07/21 00:38:14;;;;;;;23.70;16.73;;;;;;;19.79;89.74;101318.31;4953466;29;20540;-47
2022/07/21 00:40:39;;;;;;;23.70;16.65;;;;;;;19.77;90.48;101321.16;4953165;28;20190;-47
2022/07/21 00:43:05;;;;;;;21.02;15.63;;;;;;;19.80;89.25;101320.94;4953808;29;20261;-46
2022/07/21 00:45:30;;;;;;;25.40;16.67;;;;;;;19.88;89.24;101326.72;4953400;29;20178;-44
2022/07/21 00:47:56;;;;;;;22.05;15.90;;;;;;;19.76;89.47;101319.41;4936092;29;20696;-47
2022/07/21 00:50:22;;;;;;;22.55;14.63;;;;;;;19.75;89.89;101323.13;4953276;28;20214;-46
2022/07/21 00:52:48;;;;;;;20.50;15.07;;;;;;;19.89;89.71;101320.28;4953517;29;20176;-46
2022/07/21 00:55:17;;;;;;;21.50;15.75;;;;;;;19.92;89.22;101327.38;4953366;29;20178;-47
2022/07/21 00:57:43;;;;;;;20.13;15.68;;;;;;;19.79;89.00;101321.94;4952619;28;20162;-47
2022/07/21 01:00:14;;;;;;;24.98;16.02;;;;;;;19.75;89.41;101313.09;4953524;28;20193;-48
2022/07/21 01:02:40;;;;;;;23.42;16.17;;;;;;;19.81;89.29;101313.63;4953071;29;20218;-46
2022/07/21 01:05:14;;;;;;;21.15;15.10;;;;;;;19.77;88.86;101310.28;4935629;29;20184;-48
2022/07/21 01:07:48;;;;;;;20.92;14.82;;;;;;;19.63;89.37;101324.78;4953144;29;20218;-47
2022/07/21 01:10:15;;;;;;;23.95;16.35;;;;;;;19.55;90.05;101316.28;4952833;28;20202;-46
2022/07/21 01:12:41;;;;;;;21.48;15.98;;;;;;;19.37;90.99;101323.81;4935928;29;20171;-44
2022/07/21 01:15:09;;;;;;;19.75;14.55;;;;;;;19.58;90.92;101317.94;4952757;29;20186;-46
2022/07/21 01:17:34;;;;;;;20.40;16.13;;;;;;;19.35;90.81;101323.09;4952831;29;20258;-45
2022/07/21 01:20:12;;;;;;;20.20;15.13;;;;;;;19.42;90.85;101324.41;4953012;28;20694;-45
2022/07/21 01:22:39;;;;;;;19.98;14.38;;;;;;;19.52;91.11;101311.91;4952837;29;20253;-48
2022/07/21 01:25:06;;;;;;;20.50;15.20;;;;;;;19.38;90.60;101311.13;4952662;29;20289;-48
2022/07/21 01:27:33;;;;;;;22.13;16.08;;;;;;;19.48;90.85;101301.38;4952798;29;20202;-47
2022/07/21 01:29:59;;;;;;;23.50;16.00;;;;;;;19.42;90.86;101299.09;4952873;28;20733;-47
2022/07/21 01:32:25;;;;;;;25.33;17.27;;;;;;;19.25;92.08;101287.50;4952945;29;20224;-47
2022/07/21 01:34:51;;;;;;;19.00;15.68;;;;;;;19.24;92.77;101288.50;4932645;28;20645;-46
2022/07/21 01:37:22;;;;;;;20.17;15.98;;;;;;;19.22;92.33;101287.72;4931588;29;20186;-48
2022/07/21 01:42:33;;;;;;;20.85;16.48;;;;;;;19.36;92.20;101294.94;4952784;29;20649;-46
2022/07/21 01:44:59;;;;;;;23.30;16.70;;;;;;;19.31;92.00;101302.53;4952096;29;20182;-47
2022/07/21 01:47:24;;;;;;;16.40;14.55;;;;;;;19.42;91.74;101293.66;4942927;29;20686;-48
2022/07/21 01:49:50;;;;;;;22.27;16.25;;;;;;;19.40;91.22;101296.47;4960817;28;20214;-48
2022/07/21 01:52:16;;;;;;;21.35;16.15;;;;;;;19.37;91.40;101293.06;4952635;29;20585;-52
2022/07/21 01:54:41;;;;;;;22.42;16.75;;;;;;;19.45;90.70;101298.88;4952027;29;20171;-52
2022/07/21 01:57:07;;;;;;;29.52;17.80;;;;;;;19.36;91.17;101297.66;4952353;29;20199;-52
2022/07/21 01:59:32;;;;;;;19.38;14.63;;;;;;;19.46;91.68;101290.63;4952233;28;20245;-51
2022/07/21 02:01:58;;;;;;;24.23;16.67;;;;;;;19.31;91.25;101284.38;4952469;28;20253;-53
2022/07/21 02:04:23;;;;;;;20.95;15.48;;;;;;;19.13;91.04;101286.50;4952039;29;20175;-52
2022/07/21 02:06:49;;;;;;;20.05;14.55;;;;;;;19.28;91.56;101279.13;4952486;29;20207;-50
2022/07/21 02:09:14;;;;;;;29.23;17.13;;;;;;;19.21;91.38;101279.66;4955176;28;20246;-51
2022/07/21 02:11:40;;;;;;;22.02;15.90;;;;;;;19.25;91.17;101270.34;4956314;29;20174;-50
2022/07/21 02:14:06;;;;;;;19.30;15.23;;;;;;;19.22;91.40;101271.41;4955889;29;20179;-51
2022/07/21 02:16:32;;;;;;;20.17;15.50;;;;;;;19.38;91.29;101268.53;4955813;29;20257;-51
2022/07/21 02:18:58;;;;;;;18.42;14.65;;;;;;;19.47;90.73;101270.59;4956274;28;20198;-51
2022/07/21 02:21:23;;;;;;;20.85;14.70;;;;;;;19.41;90.71;101275.59;4956165;29;20174;-51
2022/07/21 02:23:49;;;;;;;25.00;17.20;;;;;;;19.07;91.26;101267.88;4955621;29;20200;-51
2022/07/21 02:26:14;;;;;;;25.35;16.65;;;;;;;19.12;92.78;101271.16;4956145;29;20342;-51
2022/07/21 02:28:40;;;;;;;21.38;16.25;;;;;;;19.04;92.20;101257.19;4956038;28;20178;-51
2022/07/21 02:31:06;;;;;;;20.05;15.50;;;;;;;19.18;93.16;101252.72;4956017;29;20189;-52
2022/07/21 02:33:32;;;;;;;20.52;15.55;;;;;;;19.13;93.08;101253.00;4955199;28;20183;-49
2022/07/21 02:35:57;;;;;;;24.02;17.17;;;;;;;19.17;92.93;101251.81;4956294;29;20170;-51
2022/07/21 02:38:23;;;;;;;22.17;15.48;;;;;;;19.17;92.45;101254.53;4956161;29;20175;-50
2022/07/21 02:40:49;;;;;;;20.00;14.90;;;;;;;19.24;92.38;101255.88;4955248;28;20213;-50
2022/07/21 02:43:14;;;;;;;22.05;16.33;;;;;;;19.09;92.67;101257.78;4955300;29;20217;-52
2022/07/21 02:45:41;;;;;;;18.33;15.38;;;;;;;19.02;92.32;101258.28;4955229;29;20194;-51
2022/07/21 02:48:09;;;;;;;18.10;15.88;;;;;;;18.92;93.01;101264.34;4955771;29;20256;-48
2022/07/21 02:50:37;;;;;;;19.88;15.38;;;;;;;18.83;93.78;101259.53;4955375;28;20708;-49
2022/07/21 02:53:07;;;;;;;18.10;14.95;;;;;;;18.86;94.02;101272.88;4954848;29;20171;-50
2022/07/21 02:55:33;;;;;;;20.98;15.45;;;;;;;18.61;93.90;101270.88;4938172;29;20178;-50
2022/07/21 02:58:09;;;;;;;21.63;16.40;;;;;;;18.60;95.09;101270.97;4954966;29;20729;-50
2022/07/21 03:00:37;;;;;;;21.88;16.83;;;;;;;18.49;95.33;101274.38;4955368;28;20192;-50
2022/07/21 03:03:04;;;;;;;18.33;15.20;;;;;;;18.62;95.80;101278.03;4954906;29;20584;-50
2022/07/21 03:05:31;;;;;;;23.15;17.50;;;;;;;18.58;95.31;101276.50;4954747;29;20183;-49
2022/07/21 03:07:56;;;;;;;20.52;16.15;;;;;;;18.67;95.12;101285.88;4954689;29;20198;-49
2022/07/21 03:10:22;;;;;;;26.48;19.10;;;;;;;18.30;95.97;101316.25;4954492;28;20580;-50
2022/07/21 03:12:47;;;;;;;31.30;21.73;;;;;;;17.98;99.17;101353.50;4954858;29;20254;-49
2022/07/21 03:15:13;;;;;;;26.40;20.60;;;;;;;18.21;100.00;101367.50;4954260;29;20186;-49
2022/07/21 03:17:38;;;;;;;30.58;21.67;;;;;;;18.29;100.00;101354.31;4954778;28;20190;-49
2022/07/21 03:20:04;;;;;;;26.48;20.60;;;;;;;18.25;99.69;101344.63;4954232;28;20218;-50
2022/07/21 03:22:30;;;;;;;27.92;21.58;;;;;;;18.17;100.00;101341.50;4954643;28;20643;-50
2022/07/21 03:24:56;;;;;;;28.15;21.45;;;;;;;18.07;100.00;101358.38;4953991;29;20237;-50
2022/07/21 03:27:21;;;;;;;26.60;22.27;;;;;;;18.12;100.00;101348.09;4954166;28;20661;-50
2022/07/21 03:29:47;;;;;;;33.40;22.80;;;;;;;18.09;100.00;101344.72;4954072;28;20194;-52
2022/07/21 03:32:12;;;;;;;34.20;22.65;;;;;;;17.95;100.00;101341.97;4954633;29;20234;-51
2022/07/21 03:34:38;;;;;;;32.85;23.48;;;;;;;18.02;100.00;101341.50;4954020;29;20807;-50
2022/07/21 03:37:03;;;;;;;28.98;22.55;;;;;;;18.07;100.00;101342.09;4956316;28;20187;-50
2022/07/21 03:39:29;;;;;;;33.20;23.13;;;;;;;17.93;100.00;101347.50;4953968;28;20241;-50
2022/07/21 03:41:55;;;;;;;31.30;22.25;;;;;;;18.06;100.00;101348.50;4953779;28;20278;-50
2022/07/21 03:44:20;;;;;;;34.08;21.77;;;;;;;18.09;100.00;101339.28;4936054;29;20544;-49
2022/07/21 03:46:46;;;;;;;31.77;21.98;;;;;;;17.98;100.00;101334.53;4961587;28;20203;-49
2022/07/21 03:49:11;;;;;;;35.15;22.75;;;;;;;18.04;100.00;101333.28;4973421;28;20748;-50
2022/07/21 03:51:37;;;;;;;30.92;22.30;;;;;;;17.99;100.00;101340.81;4973697;28;20193;-49
2022/07/21 03:54:03;;;;;;;32.33;21.70;;;;;;;18.08;100.00;101332.09;4973080;28;20178;-50
2022/07/21 03:56:28;;;;;;;27.88;19.85;;;;;;;18.18;100.00;101349.56;4972765;28;20166;-49
2022/07/21 03:58:54;;;;;;;27.70;21.63;;;;;;;17.99;100.00;101354.38;4972973;28;20178;-49
2022/07/21 04:01:20;;;;;;;28.15;21.10;;;;;;;17.91;100.00;101358.44;4973309;28;20198;-49
2022/07/21 04:03:45;;;;;;;30.52;20.13;;;;;;;18.16;100.00;101351.50;4972852;28;20531;-49
2022/07/21 04:06:11;;;;;;;33.30;19.65;;;;;;;18.16;100.00;101342.50;4973085;28;20175;-49
2022/07/21 04:08:37;;;;;;;30.58;20.55;;;;;;;18.16;99.66;101334.38;4955869;28;20182;-48
2022/07/21 04:11:03;;;;;;;26.88;20.15;;;;;;;18.11;100.00;101343.66;4973005;28;20173;-49
2022/07/21 04:13:28;;;;;;;31.65;21.70;;;;;;;18.14;99.58;101320.03;4972677;28;20259;-49
2022/07/21 04:15:54;;;;;;;27.48;20.67;;;;;;;18.15;99.73;101321.75;4972415;28;20182;-51
2022/07/21 04:18:19;;;;;;;36.33;21.92;;;;;;;18.04;99.98;101320.59;4972170;28;20166;-49
2022/07/21 04:20:45;;;;;;;33.72;22.48;;;;;;;18.13;100.00;101319.16;4972378;28;20310;-49
2022/07/21 04:23:10;;;;;;;34.70;22.55;;;;;;;18.09;100.00;101317.59;4964174;28;20167;-51
2022/07/21 04:25:38;;;;;;;32.72;22.05;;;;;;;18.01;100.00;101320.78;4952981;29;20187;-50
2022/07/21 04:28:04;;;;;;;31.05;23.00;;;;;;;17.98;100.00;101314.69;4952624;29;20195;-50
2022/07/21 04:30:29;;;;;;;30.13;22.63;;;;;;;17.99;100.00;101320.00;4952656;28;20250;-51
2022/07/21 04:32:55;;;;;;;33.28;22.40;;;;;;;18.00;100.00;101321.75;4951992;29;20193;-50
2022/07/21 04:35:21;;;;;;;31.58;21.20;;;;;;;17.92;100.00;101324.06;4952589;29;20631;-49
2022/07/21 04:37:47;;;;;;;32.92;22.10;;;;;;;17.95;100.00;101332.03;4951952;29;20175;-52
2022/07/21 04:40:14;;;;;;;30.77;21.83;;;;;;;18.18;100.00;101337.84;4952482;29;20199;-51
2022/07/21 04:42:40;;;;;;;29.33;20.13;;;;;;;18.28;100.00;101339.91;4952433;29;20190;-52
2022/07/21 04:45:07;;;;;;;34.13;21.50;;;;;;;18.33;100.00;101331.47;4952350;29;20175;-51
2022/07/21 04:47:40;;;;;;;32.60;22.50;;;;;;;18.36;100.00;101324.97;4952277;29;20215;-51
2022/07/21 04:50:08;;;;;;;28.25;20.77;;;;;;;18.19;100.00;101318.78;4952527;29;20191;-52
2022/07/21 04:52:33;;;;;;;33.78;21.17;;;;;;;18.49;100.00;101315.94;4952089;29;20226;-51
2022/07/21 04:54:59;;;;;;;30.58;19.77;;;;;;;18.60;100.00;101319.84;4951781;28;20171;-50
2022/07/21 04:57:24;;;;;;;32.50;19.98;;;;;;;18.61;100.00;101324.31;4952410;28;20190;-50
2022/07/21 04:59:50;;;;;;;30.80;19.80;;;;;;;18.66;99.46;101333.00;4952132;29;20194;-50
2022/07/21 05:02:15;;;;;;;33.85;20.88;;;;;;;18.53;99.05;101346.50;4952202;29;20171;-51
2022/07/21 05:04:41;;;;;;;34.03;19.98;;;;;;;18.41;99.39;101353.56;4951661;28;20266;-49
2022/07/21 05:07:07;;;;;;;28.58;18.58;;;;;;;18.42;100.00;101360.72;4952217;29;20210;-51
2022/07/21 05:09:32;;;;;;;28.90;18.25;;;;;;;18.46;100.00;101364.13;4952071;29;20314;-48
2022/07/21 05:11:58;;;;;;;26.65;18.35;;;;;;;18.59;100.00;101369.66;4952569;29;20702;-49
2022/07/21 05:14:23;;;;;;;30.13;18.65;;;;;;;18.43;100.00;101365.19;4951545;29;20249;-48
2022/07/21 05:16:49;;;;;;;28.08;17.48;;;;;;;18.60;100.00;101363.25;4952032;28;20179;-49
2022/07/21 05:19:14;;;;;;;26.42;18.30;;;;;;;18.52;100.00;101355.63;4952190;29;20229;-50
2022/07/21 05:21:40;;;;;;;28.58;17.63;;;;;;;18.68;100.00;101350.94;4951795;28;20529;-47
2022/07/21 05:24:05;;;;;;;30.15;17.52;;;;;;;18.77;100.00;101345.91;4951191;29;20568;-49
2022/07/21 05:26:31;;;;;;;30.52;17.77;;;;;;;18.80;100.00;101335.72;4951845;29;20618;-49
2022/07/21 05:28:56;;;;;;;30.25;19.42;;;;;;;18.68;100.00;101337.38;4952109;29;20173;-49
2022/07/21 05:31:22;;;;;;;29.35;18.23;;;;;;;18.78;100.00;101332.22;4952324;29;20553;-48
2022/07/21 05:33:47;;;;;;;30.90;18.17;;;;;;;18.70;100.00;101345.41;4951294;29;20616;-48
2022/07/21 05:36:13;;;;;;;26.63;19.15;;;;;;;18.59;100.00;101337.97;4951852;28;20187;-47
2022/07/21 05:38:38;;;;;;;33.33;19.08;;;;;;;18.66;100.00;101341.16;4951545;29;20597;-49
2022/07/21 05:41:04;;;;;;;34.33;19.90;;;;;;;18.61;100.00;101356.88;4951645;29;20205;-46
2022/07/21 05:43:30;;;;;;;33.67;19.85;;;;;;;18.59;100.00;101347.94;4953689;28;20213;-49
2022/07/21 05:45:56;;;;;;;26.95;17.05;;;;;;;18.68;100.00;101345.50;4955999;29;20190;-46
2022/07/21 05:48:22;;;;;;;29.52;16.42;;;;;;;18.84;100.00;101347.28;4955825;29;20187;-47
2022/07/21 05:50:47;;;;;;;30.35;17.25;;;;;;;18.76;100.00;101344.13;4955841;29;20269;-49
2022/07/21 05:53:13;;;;;;;31.52;15.93;;;;;;;18.86;100.00;101335.34;4954963;29;20261;-50
2022/07/21 05:55:38;;;;;;;30.00;15.35;;;;;;;19.12;100.00;101341.78;4955699;29;20272;-51
2022/07/21 05:58:04;;;;;;;29.92;15.40;;;;;;;19.03;100.00;101346.94;4955565;29;20253;-49
2022/07/21 06:00:29;;;;;;;30.73;15.00;;;;;;;19.07;100.00;101352.06;4952316;28;20202;-48
2022/07/21 06:02:55;;;;;;;26.35;14.85;;;;;;;19.14;100.00;101339.81;4971918;28;20276;-49
2022/07/21 06:05:20;;;;;;;23.55;13.05;;;;;;;19.24;99.31;101328.34;4960912;28;20174;-48
2022/07/21 06:07:46;;;;;;;28.42;13.82;;;;;;;19.18;99.45;101329.66;4955605;29;20198;-49
2022/07/21 06:10:12;;;;;;;25.08;11.68;;;;;;;19.37;99.95;101340.13;4955517;28;20301;-50
2022/07/21 06:12:37;;;;;;;26.08;12.02;;;;;;;19.50;98.70;101337.47;4938281;29;20202;-48
2022/07/21 06:15:03;;;;;;;30.10;12.25;;;;;;;19.54;98.38;101337.16;4954983;29;20537;-48
2022/07/21 06:17:31;;;;;;;20.90;12.05;;;;;;;19.79;97.34;101334.63;4955254;29;20167;-43
2022/07/21 06:19:58;;;;;;;22.90;11.65;;;;;;;19.84;96.36;101335.19;4955215;28;20235;-42
2022/07/21 06:22:24;;;;;;;25.65;10.98;;;;;;;20.19;95.35;101327.28;4955023;29;20178;-42
2022/07/21 06:24:49;;;;;;;19.50;10.95;;;;;;;20.24;94.19;101316.06;4954556;29;20265;-44
2022/07/21 06:27:15;;;;;;;28.10;11.73;;;;;;;20.47;94.47;101312.59;4955439;29;20745;-43
2022/07/21 06:29:40;;;;;;;18.73;10.95;;;;;;;21.06;91.47;101316.50;4954806;28;20258;-43
2022/07/21 06:32:06;;;;;;;19.80;10.98;;;;;;;21.03;89.87;101322.16;4955187;29;20197;-43
2022/07/21 06:34:31;;;;;;;21.45;10.63;;;;;;;21.15;89.30;101316.66;4955031;29;20258;-44
2022/07/21 06:36:57;;;;;;;20.23;10.55;;;;;;;21.39;87.58;101316.66;4954645;29;20567;-43
2022/07/21 06:39:22;;;;;;;16.30;10.07;;;;;;;21.59;87.25;101312.44;4955132;28;20703;-44
2022/07/21 06:41:47;;;;;;;19.45;12.90;;;;;;;21.34;86.93;101321.63;4937503;29;20590;-44
2022/07/21 06:44:13;;;;;;;22.63;13.82;;;;;;;20.82;88.32;101320.06;4954716;29;20178;-43
2022/07/21 06:46:38;;;;;;;21.40;11.57;;;;;;;20.70;89.57;101327.25;4954720;29;20713;-42
2022/07/21 06:49:04;;;;;;;22.83;10.98;;;;;;;20.84;88.52;101325.38;4954893;28;20206;-43
2022/07/21 06:51:29;;;;;;;17.55;10.50;;;;;;;20.88;89.60;101327.78;4954817;29;20166;-43
2022/07/21 06:53:55;;;;;;;23.67;10.75;;;;;;;21.01;88.54;101337.75;4953233;28;20217;-45
2022/07/21 06:56:21;;;;;;;15.20;10.18;;;;;;;21.01;88.38;101352.25;4954390;29;20206;-43
2022/07/21 06:58:47;;;;;;;21.27;10.85;;;;;;;20.94;88.63;101354.53;4954576;28;20158;-43
2022/07/21 07:01:14;;;;;;;17.35;10.50;;;;;;;20.83;88.60;101351.75;4954520;29;20605;-42
2022/07/21 07:03:40;;;;;;;18.77;10.18;;;;;;;20.81;90.16;101355.56;4937214;29;20613;-44
2022/07/21 07:06:06;;;;;;;18.73;10.60;;;;;;;20.98;89.05;101355.19;4954229;29;20209;-42
2022/07/21 07:08:32;;;;;;;18.05;11.50;;;;;;;20.89;88.84;101361.34;4954874;29;20795;-45
2022/07/21 07:10:58;;;;;;;18.92;10.48;;;;;;;21.03;86.86;101360.31;4954216;28;20341;-43
2022/07/21 07:13:24;;;;;;;19.38;9.73;;;;;;;20.90;88.04;101361.22;4936745;29;20770;-43
2022/07/21 07:15:49;;;;;;;21.00;11.32;;;;;;;21.03;87.70;101352.13;4954298;29;20226;-43
2022/07/21 07:18:15;;;;;;;20.70;10.65;;;;;;;20.98;87.76;101358.78;4954213;29;20580;-44
2022/07/21 07:20:40;;;;;;;15.77;10.10;;;;;;;20.99;88.02;101360.53;4954274;28;20571;-45
2022/07/21 07:23:06;;;;;;;18.70;10.02;;;;;;;20.85;87.67;101347.06;4936596;29;20181;-44
2022/07/21 07:25:32;;;;;;;23.63;10.90;;;;;;;20.85;87.86;101328.00;4953697;28;20573;-44
2022/07/21 07:27:58;;;;;;;17.92;10.10;;;;;;;21.04;86.99;101316.63;4954128;29;20190;-44
2022/07/21 07:30:23;;;;;;;16.48;10.15;;;;;;;21.03;85.97;101317.59;4936822;29;20202;-43
2022/07/21 07:32:50;;;;;;;15.98;8.85;;;;;;;20.95;85.41;101326.34;4954172;29;20162;-44
2022/07/21 07:35:16;;;;;;;15.23;9.07;;;;;;;21.10;84.90;101326.16;4953312;29;20174;-43
2022/07/21 07:37:44;;;;;;;15.05;9.07;;;;;;;21.11;84.82;101317.03;4954274;29;20569;-42
2022/07/21 07:40:15;;;;;;;21.20;8.55;;;;;;;20.97;83.38;101321.66;4954110;29;20190;-42
2022/07/21 07:42:41;;;;;;;13.07;7.13;;;;;;;20.98;83.80;101304.31;4954952;28;20247;-42
2022/07/21 07:45:07;;;;;;;13.55;6.93;;;;;;;21.27;82.30;101308.56;4968128;28;20293;-44
2022/07/21 07:47:34;;;;;;;11.02;6.05;;;;;;;21.31;79.64;101286.41;4972887;28;20625;-43
2022/07/21 07:50:00;;;;;;;14.48;6.65;;;;;;;21.79;79.25;101297.25;4972939;28;20662;-43
2022/07/21 07:52:26;;;;;;;12.88;6.22;;;;;;;21.95;77.76;101294.22;4964430;28;20245;-43
2022/07/21 07:54:51;;;;;;;12.45;5.93;;;;;;;21.94;78.09;101286.16;4954779;28;20179;-42
2022/07/21 07:57:17;;;;;;;11.95;5.43;;;;;;;22.65;78.07;101300.47;4953847;29;20158;-43
2022/07/21 07:59:42;;;;;;;9.35;5.63;;;;;;;23.05;76.14;101299.97;4953591;28;20202;-43
2022/07/21 08:02:08;;;;;;;10.40;5.40;;;;;;;23.16;73.44;101291.72;4958458;28;20502;-41
2022/07/21 08:04:35;;;;;;;12.05;5.38;;;;;;;23.22;73.64;101277.53;4953168;29;20170;-44
2022/07/21 08:07:02;;;;;;;8.23;5.53;;;;;;;23.04;72.68;101270.88;4953018;28;20214;-42
2022/07/21 08:09:28;;;;;;;7.60;5.05;;;;;;;23.00;71.70;101272.13;4953590;28;20293;-42
2022/07/21 08:11:53;;;;;;;8.75;5.03;;;;;;;22.98;71.62;101290.47;4953772;29;20261;-43
2022/07/21 08:14:19;;;;;;;11.30;5.30;;;;;;;22.95;72.29;101323.53;4935511;29;20206;-43
2022/07/21 08:16:45;;;;;;;9.32;4.90;;;;;;;22.96;72.71;101317.09;4953782;29;20170;-41
2022/07/21 08:19:11;;;;;;;11.13;5.35;;;;;;;22.83;73.89;101307.16;4953349;28;20194;-43
2022/07/21 08:21:37;;;;;;;8.98;5.10;;;;;;;23.18;72.89;101306.13;4953415;29;20273;-43
2022/07/21 08:24:04;;;;;;;7.82;5.18;;;;;;;23.31;71.82;101311.44;4952664;29;20182;-43
2022/07/21 08:26:29;;;;;;;9.70;5.72;;;;;;;23.21;71.02;101294.91;4952783;29;20286;-44
2022/07/21 08:28:56;;;;;;;9.25;5.03;;;;;;;22.95;71.56;101285.28;4953316;29;20221;-43
2022/07/21 08:31:22;;;;;;;8.90;5.30;;;;;;;22.83;71.77;101281.72;4953270;29;20178;-43
2022/07/21 08:33:48;;;;;;;9.82;5.35;;;;;;;22.60;72.28;101284.47;4952429;29;20184;-41
2022/07/21 08:36:13;;;;;;;9.90;5.20;;;;;;;22.51;73.35;101274.28;4953137;29;20179;-43
2022/07/21 08:38:39;;;;;;;9.85;4.88;;;;;;;22.48;74.25;101260.00;4935683;29;20162;-43
2022/07/21 08:41:07;;;;;;;10.30;5.63;;;;;;;22.31;74.39;101266.88;4952784;29;20186;-43
2022/07/21 08:43:32;;;;;;;8.60;5.30;;;;;;;22.36;73.56;101270.09;4952725;29;20173;-45
2022/07/21 08:45:59;;;;;;;9.13;5.18;;;;;;;22.51;74.13;101287.09;4952799;28;20199;-46
2022/07/21 08:48:26;;;;;;;8.82;5.40;;;;;;;22.18;75.54;101288.78;4952343;29;20198;-47
2022/07/21 08:50:52;;;;;;;8.63;4.90;;;;;;;22.22;74.99;101282.13;4952581;29;20194;-46
2022/07/21 08:53:17;;;;;;;8.15;5.03;;;;;;;22.06;74.33;101271.50;4951982;29;20162;-47
2022/07/21 08:55:43;;;;;;;7.32;4.63;;;;;;;22.18;74.18;101283.31;4952638;29;20183;-48
2022/07/21 08:58:11;;;;;;;9.20;4.88;;;;;;;22.27;74.50;101292.66;4952791;29;20165;-46
2022/07/21 09:00:39;;;;;;;8.68;5.00;;;;;;;22.27;74.95;101304.44;4952190;28;20221;-45
2022/07/21 09:03:26;;;;;;;9.27;5.15;;;;;;;22.41;75.10;101306.94;4952128;29;20808;-48
2022/07/21 09:05:59;;;;;;;11.23;4.85;;;;;;;22.67;74.45;101322.19;4952147;29;20672;-48
2022/07/21 09:08:54;;;;;;;14.13;5.65;;;;;;;22.68;74.27;101334.88;4952552;29;20237;-46
2022/07/21 09:11:33;;;;;;;8.85;5.18;;;;;;;22.43;74.67;101350.50;4952306;29;20278;-45
2022/07/21 09:14:04;;;;;;;13.25;5.05;;;;;;;22.48;76.01;101371.97;4951818;29;20693;-45
2022/07/21 09:16:56;;;;;;;8.80;4.72;;;;;;;22.16;75.66;101389.88;4952080;29;20245;-47
2022/07/21 09:19:33;;;;;;;7.78;4.20;;;;;;;22.11;76.78;101388.53;4931574;29;20283;-46
2022/07/21 09:22:05;;;;;;;10.77;4.43;;;;;;;22.16;76.37;101387.16;4952319;29;20272;-45
2022/07/21 09:24:37;;;;;;;8.55;4.72;;;;;;;21.83;77.68;101397.97;4934153;29;20186;-45
2022/07/21 09:27:22;;;;;;;8.05;4.95;;;;;;;21.91;77.59;101393.66;4952505;29;20274;-45
2022/07/21 09:29:56;;;;;;;12.85;4.70;;;;;;;21.91;78.19;101395.50;4951815;28;20207;-45
2022/07/21 09:32:22;;;;;;;12.73;5.07;;;;;;;21.98;78.59;101394.91;4952263;29;20646;-45
2022/07/21 09:34:51;;;;;;;9.55;4.32;;;;;;;22.24;78.71;101396.63;4934461;29;20182;-47
2022/07/21 09:37:18;;;;;;;12.77;4.95;;;;;;;22.21;78.78;101395.88;4951913;29;20167;-45
2022/07/21 09:39:51;;;;;;;12.80;4.28;;;;;;;22.58;77.85;101409.34;4951883;28;20198;-47
2022/07/21 09:42:23;;;;;;;9.35;4.85;;;;;;;22.33;78.37;101413.16;4951695;29;20202;-45
2022/07/21 09:44:56;;;;;;;11.63;4.55;;;;;;;22.41;79.52;101418.91;4934238;29;20205;-46
2022/07/21 09:47:24;;;;;;;14.65;5.32;;;;;;;22.61;79.77;101411.00;4952020;29;20197;-46
2022/07/21 09:49:49;;;;;;;10.85;5.00;;;;;;;23.27;77.79;101411.13;4951528;28;20733;-46
2022/07/21 09:52:21;;;;;;;11.93;4.93;;;;;;;22.91;77.87;101414.97;4951836;28;20298;-46
2022/07/21 09:54:46;;;;;;;15.00;5.60;;;;;;;22.72;79.62;101401.91;4951045;29;20166;-45
2022/07/21 09:57:13;;;;;;;13.73;5.18;;;;;;;22.75;79.25;101415.34;4952033;29;20169;-47
2022/07/21 09:59:39;;;;;;;11.95;5.38;;;;;;;22.80;79.61;101404.91;4951680;28;20202;-47
2022/07/21 10:02:07;;;;;;;11.48;4.85;;;;;;;23.40;77.04;101406.38;4951914;29;20504;-47
2022/07/21 10:04:35;;;;;;;11.52;4.72;;;;;;;23.79;76.61;101409.50;4951276;29;20212;-47
2022/07/21 10:07:01;;;;;;;11.45;5.15;;;;;;;23.76;75.39;101407.03;4951518;29;20216;-45
2022/07/21 10:09:27;;;;;;;9.40;4.13;;;;;;;23.58;75.92;101403.94;4951347;28;20190;-47
2022/07/21 10:11:53;;;;;;;10.15;4.50;;;;;;;23.32;75.97;101410.72;4951560;29;20663;-46
2022/07/21 10:14:19;;;;;;;9.18;4.20;;;;;;;23.69;75.28;101407.66;4951208;29;20204;-47
2022/07/21 10:16:44;;;;;;;10.63;4.85;;;;;;;23.27;74.33;101411.13;4951341;28;20249;-44
2022/07/21 10:19:18;;;;;;;10.25;4.80;;;;;;;24.05;73.27;101398.19;4951642;28;20193;-46
2022/07/21 10:22:21;;;;;;;7.65;4.40;;;;;;;25.04;71.35;101393.16;4951777;29;20256;-47
2022/07/21 10:24:47;;;;;;;8.20;4.13;;;;;;;24.96;69.36;101387.50;4927299;29;20673;-45
2022/07/21 10:27:13;;;;;;;11.13;3.50;;;;;;;25.12;67.20;101396.03;4951445;29;20208;-45
2022/07/21 10:29:48;;;;;;;7.85;3.85;;;;;;;25.23;66.40;101404.22;4953517;28;20190;-46
2022/07/21 10:32:19;;;;;;;9.45;3.47;;;;;;;25.43;65.44;101399.63;4955246;29;20617;-47
2022/07/21 10:34:45;;;;;;;8.73;3.47;;;;;;;25.43;65.10;101407.88;4954312;28;20181;-46
2022/07/21 10:37:31;;;;;;;7.05;3.30;;;;;;;24.78;66.97;101407.31;4955076;29;20273;-47
2022/07/21 10:39:56;;;;;;;6.85;3.35;;;;;;;25.05;67.19;101412.19;4954840;28;20611;-46
2022/07/21 10:42:22;;;;;;;8.73;3.75;;;;;;;24.68;67.03;101423.69;4955413;29;20186;-43
2022/07/21 10:44:48;;;;;;;7.05;3.35;;;;;;;24.59;66.94;101409.97;4954442;29;20253;-44
2022/07/21 10:47:20;;;;;;;7.28;3.42;;;;;;;24.38;69.30;101419.03;4954816;29;20545;-43
2022/07/21 10:49:54;;;;;;;9.15;3.63;;;;;;;24.60;69.41;101428.16;4954861;28;20960;-41
2022/07/21 10:52:35;;;;;;;8.93;3.88;;;;;;;24.46;69.24;101412.88;4954688;29;20206;-42
2022/07/21 10:55:10;;;;;;;8.35;4.00;;;;;;;24.47;70.54;101420.97;4954487;29;20178;-43
2022/07/21 10:57:46;;;;;;;12.05;4.43;;;;;;;24.25;69.42;101426.59;4954617;29;20165;-41
2022/07/21 11:00:18;;;;;;;6.82;3.95;;;;;;;24.22;70.83;101432.31;4954785;28;20216;-43
2022/07/21 11:02:47;;;;;;;7.43;3.80;;;;;;;24.21;69.38;101427.84;4954530;29;20206;-41
2022/07/21 11:05:13;;;;;;;9.63;3.67;;;;;;;24.14;70.36;101419.31;4954283;29;20204;-42
2022/07/21 11:08:10;;;;;;;8.25;3.90;;;;;;;23.98;70.94;101411.53;4954496;29;20194;-42
2022/07/21 11:10:37;;;;;;;6.40;3.88;;;;;;;23.98;70.66;101410.66;4954786;28;20198;-43
2022/07/21 11:13:03;;;;;;;5.97;3.80;;;;;;;24.04;70.33;101410.16;4954124;29;20178;-42
2022/07/21 11:15:50;;;;;;;6.80;3.90;;;;;;;23.95;70.72;101420.00;4954492;28;20174;-42